Time;durP1;ratioP1;P1;durP2;ratioP2;P2;SDS_P1;SDS_P2;PMS_P1;PMS_P2;Temp;Humidity;BMP_temperature;BMP_pressure;BME280_temperature;BME280_humidity;BME280_pressure;Samples;Min_cycle;Max_cycle;Signal;HPM_P1;HPM_P2
2021/05/11 00:01:05;;;;;;;17.90;10.48;;;;;;;7.34;67.06;101242.63;1788193;79;21757;-75
2021/05/11 00:03:32;;;;;;;20.05;10.32;;;;;;;7.32;67.14;101239.40;1788514;78;21780;-76
2021/05/11 00:06:00;;;;;;;12.85;8.75;;;;;;;7.31;67.62;101242.58;1785094;79;21609;-74
2021/05/11 00:08:28;;;;;;;15.05;9.08;;;;;;;7.31;67.74;101245.23;1782537;79;21703;-77
2021/05/11 00:10:58;;;;;;;13.32;9.05;;;;;;;7.32;67.75;101232.23;1785728;79;21202;-75
2021/05/11 00:13:26;;;;;;;11.60;8.00;;;;;;;7.34;67.43;101226.20;1785252;79;22111;-75
2021/05/11 00:15:53;;;;;;;13.10;7.97;;;;;;;7.35;67.02;101228.34;1785676;79;21245;-75
2021/05/11 00:18:22;;;;;;;11.68;7.58;;;;;;;7.37;66.06;101228.91;1783345;79;21237;-76
2021/05/11 00:20:50;;;;;;;13.43;7.42;;;;;;;7.38;65.06;101231.36;1790006;79;21147;-76
2021/05/11 00:23:19;;;;;;;12.20;7.85;;;;;;;7.40;64.36;101223.16;1782509;78;21205;-75
2021/05/11 00:25:48;;;;;;;12.13;7.90;;;;;;;7.40;63.79;101227.95;1777936;79;22117;-75
2021/05/11 00:28:15;;;;;;;11.57;7.15;;;;;;;7.40;63.38;101217.84;1778242;79;21224;-77
2021/05/11 00:30:44;;;;;;;10.88;6.72;;;;;;;7.36;62.99;101212.16;1781778;79;21166;-76
2021/05/11 00:33:11;;;;;;;10.10;6.90;;;;;;;7.34;62.65;101202.77;1785174;79;22526;-76
2021/05/11 00:35:39;;;;;;;11.50;7.90;;;;;;;7.29;62.47;101204.25;1781400;79;21169;-76
2021/05/11 00:38:07;;;;;;;13.15;7.45;;;;;;;7.26;62.30;101208.67;1785048;79;21197;-76
2021/05/11 00:40:35;;;;;;;13.85;8.05;;;;;;;7.21;61.90;101201.89;1785883;79;21244;-76
2021/05/11 00:43:03;;;;;;;10.18;7.20;;;;;;;7.19;61.49;101203.94;1754717;79;21228;-77
2021/05/11 00:45:32;;;;;;;12.58;6.60;;;;;;;7.14;60.99;101198.97;1781984;78;21232;-76
2021/05/11 00:48:01;;;;;;;11.63;6.35;;;;;;;7.11;60.42;101196.27;1754074;79;21224;-76
2021/05/11 00:50:29;;;;;;;11.53;7.40;;;;;;;7.11;60.43;101194.93;1767185;80;21308;-75
2021/05/11 00:52:57;;;;;;;10.20;6.65;;;;;;;7.11;61.24;101195.42;1776072;78;21282;-77
2021/05/11 00:55:26;;;;;;;12.73;7.53;;;;;;;7.10;61.67;101198.59;1765843;79;21197;-77
2021/05/11 00:57:54;;;;;;;12.55;7.90;;;;;;;7.11;61.84;101190.11;1786704;78;21202;-77
2021/05/11 01:00:22;;;;;;;12.73;8.30;;;;;;;7.12;61.85;101195.22;1763795;81;21188;-80
2021/05/11 01:02:50;;;;;;;12.25;8.23;;;;;;;7.14;61.79;101193.17;1776684;79;21280;-80
2021/05/11 01:05:18;;;;;;;13.58;7.83;;;;;;;7.16;61.72;101191.61;1783792;78;21104;-79
2021/05/11 01:07:48;;;;;;;11.55;7.67;;;;;;;7.17;61.55;101186.58;1766519;79;21269;-77
2021/05/11 01:10:16;;;;;;;14.60;8.20;;;;;;;7.18;61.53;101190.37;1789285;77;21209;-76
2021/05/11 01:12:47;;;;;;;12.98;7.58;;;;;;;7.19;61.72;101193.83;1765558;79;21190;-76
2021/05/11 01:15:17;;;;;;;11.63;7.67;;;;;;;7.18;61.89;101193.02;1780722;79;21205;-75
2021/05/11 01:17:58;;;;;;;11.73;8.08;;;;;;;7.18;61.91;101190.89;1785375;77;21190;-74
2021/05/11 01:20:32;;;;;;;15.35;8.33;;;;;;;7.19;61.92;101191.98;1787549;79;21257;-75
2021/05/11 01:23:27;;;;;;;15.75;8.70;;;;;;;7.18;62.03;101193.02;1765878;79;21433;-75
2021/05/11 01:25:40;;;;;;;14.78;8.40;;;;;;;7.21;61.92;101191.78;1752557;79;21192;-74
2021/05/11 01:28:21;;;;;;;15.95;8.75;;;;;;;7.22;61.84;101192.06;1759372;79;21981;-76
2021/05/11 01:45:28;;;;;;;14.93;7.90;;;;;;;7.21;61.47;101189.93;1813297;77;21178;-76
2021/05/11 01:47:42;;;;;;;11.48;8.13;;;;;;;7.21;61.50;101182.48;1804124;78;21144;-77
2021/05/11 01:50:05;;;;;;;13.05;8.28;;;;;;;7.21;61.54;101184.62;1810793;78;21151;-76
2021/05/11 01:52:55;;;;;;;12.65;7.97;;;;;;;7.22;61.42;101184.91;1825167;78;22213;-76
2021/05/11 02:22:46;;;;;;;13.25;7.40;;;;;;;7.34;59.12;101181.51;1758288;80;21206;-77
2021/05/11 02:25:14;;;;;;;14.33;8.50;;;;;;;7.32;59.01;101183.08;1749563;79;21654;-76
2021/05/11 02:27:42;;;;;;;11.05;7.03;;;;;;;7.29;59.20;101185.64;1766455;81;21171;-77
2021/05/11 02:30:13;;;;;;;11.35;7.53;;;;;;;7.28;59.43;101188.02;1758314;81;21200;-76
2021/05/11 02:32:42;;;;;;;11.93;6.72;;;;;;;7.27;59.81;101184.23;1745825;81;21195;-76
2021/05/11 02:35:13;;;;;;;11.15;7.17;;;;;;;7.26;60.18;101178.63;1744326;79;21188;-76
2021/05/11 02:37:43;;;;;;;11.38;7.00;;;;;;;7.26;60.23;101183.42;1762016;81;21207;-77
2021/05/11 02:40:12;;;;;;;11.45;7.40;;;;;;;7.28;60.00;101176.06;1765151;81;21183;-76
2021/05/11 02:42:43;;;;;;;10.95;6.97;;;;;;;7.31;59.76;101178.80;1754227;81;21165;-76
2021/05/11 02:45:14;;;;;;;11.10;7.72;;;;;;;7.35;59.46;101176.52;1760569;79;22122;-76
2021/05/11 02:47:49;;;;;;;11.93;7.35;;;;;;;7.40;59.41;101176.65;1753866;79;21614;-76
2021/05/11 02:50:20;;;;;;;11.43;6.45;;;;;;;7.41;59.36;101183.09;1759590;81;21136;-76
2021/05/11 02:52:48;;;;;;;13.25;7.50;;;;;;;7.45;59.30;101179.47;1744423;81;21619;-76
2021/05/11 02:55:18;;;;;;;12.20;7.20;;;;;;;7.48;59.24;101180.36;1755442;79;21188;-76
2021/05/11 02:57:47;;;;;;;10.90;6.75;;;;;;;7.51;59.18;101179.40;1754592;81;21342;-76
2021/05/11 03:00:18;;;;;;;12.70;7.67;;;;;;;7.55;59.21;101175.78;1763231;81;21206;-74
2021/05/11 03:02:47;;;;;;;12.05;7.37;;;;;;;7.61;59.51;101175.42;1745028;81;23166;-74
2021/05/11 03:05:16;;;;;;;14.93;8.68;;;;;;;7.65;59.57;101168.62;1750164;81;21167;-75
2021/05/11 03:07:43;;;;;;;14.28;8.65;;;;;;;7.68;59.75;101164.99;1757404;79;21152;-77
2021/05/11 03:10:13;;;;;;;10.20;7.80;;;;;;;7.71;59.86;101171.20;1635100;81;9999646;-74
2021/05/11 03:12:41;;;;;;;11.97;7.87;;;;;;;7.77;59.76;101173.49;1743369;81;21222;-74
2021/05/11 03:15:11;;;;;;;13.20;8.20;;;;;;;7.84;59.68;101174.74;1737179;81;21195;-75
2021/05/11 03:17:39;;;;;;;11.48;7.80;;;;;;;7.89;59.58;101171.69;1733965;81;21675;-74
2021/05/11 03:20:09;;;;;;;9.40;5.78;;;;;;;7.96;59.09;101170.27;1731786;81;21216;-74
2021/05/11 03:22:38;;;;;;;8.63;6.05;;;;;;;8.02;58.35;101168.57;1731661;82;21214;-74
2021/05/11 03:25:08;;;;;;;9.93;6.47;;;;;;;8.09;57.84;101171.42;1724649;81;21173;-74
2021/05/11 03:27:35;;;;;;;10.43;6.20;;;;;;;8.17;57.40;101169.80;1735397;81;21251;-74
2021/05/11 03:30:05;;;;;;;9.63;6.10;;;;;;;8.24;57.18;101171.03;1729392;81;21212;-74
2021/05/11 03:32:33;;;;;;;7.72;5.28;;;;;;;8.30;56.32;101169.33;1735076;81;22085;-73
2021/05/11 03:35:01;;;;;;;8.30;5.47;;;;;;;8.37;55.98;101165.52;1735920;81;21222;-74
2021/05/11 03:37:31;;;;;;;8.65;5.45;;;;;;;8.45;55.99;101165.73;1734961;81;21230;-73
2021/05/11 03:39:58;;;;;;;10.82;6.47;;;;;;;8.53;55.68;101168.09;1734923;81;21222;-74
2021/05/11 03:42:34;;;;;;;10.80;5.30;;;;;;;8.60;55.59;101169.31;1737139;82;21198;-74
2021/05/11 03:45:02;;;;;;;10.08;6.25;;;;;;;8.66;55.35;101170.55;1736403;81;21297;-75
2021/05/11 03:47:45;;;;;;;9.43;5.93;;;;;;;8.82;55.35;101172.27;1826054;76;22400;-74
2021/05/11 03:50:27;;;;;;;9.90;6.10;;;;;;;8.91;55.08;101178.84;1801824;79;22782;-73
2021/05/11 03:53:02;;;;;;;8.40;5.63;;;;;;;9.02;54.83;101177.25;1833087;77;23665;-72
2021/05/11 03:55:57;;;;;;;8.10;5.33;;;;;;;9.12;54.71;101180.95;1796486;78;22859;-72
2021/05/11 03:58:38;;;;;;;6.50;4.43;;;;;;;9.22;53.97;101180.91;1817832;76;22718;-73
2021/05/11 04:01:20;;;;;;;8.47;4.70;;;;;;;9.34;53.80;101173.69;1815867;77;22667;-73
2021/05/11 04:04:06;;;;;;;8.50;4.70;;;;;;;9.40;53.39;101181.56;1789257;79;21222;-74
2021/05/11 04:06:45;;;;;;;7.40;4.67;;;;;;;9.58;52.73;101178.48;1822440;76;23348;-73
2021/05/11 04:18:12;;;;;;;5.93;3.53;;;;;;;10.12;51.32;101163.53;1825490;77;22470;-71
2021/05/11 04:20:48;;;;;;;6.37;4.00;;;;;;;10.23;51.02;101160.82;1818326;77;22780;-74
2021/05/11 04:23:33;;;;;;;6.57;3.67;;;;;;;10.36;50.96;101159.71;1762402;79;22377;-75
2021/05/11 04:26:14;;;;;;;6.57;3.73;;;;;;;10.50;50.70;101171.73;1830456;77;22777;-74
2021/05/11 04:28:55;;;;;;;7.40;3.83;;;;;;;10.64;50.41;101157.53;1817350;76;22960;-75
2021/05/11 04:31:37;;;;;;;7.83;3.50;;;;;;;10.80;49.72;101159.92;1842747;77;22715;-74
2021/05/11 04:34:22;;;;;;;6.67;4.00;;;;;;;10.97;49.71;101160.72;1832452;77;23158;-74
2021/05/11 04:36:58;;;;;;;9.00;4.20;;;;;;;11.11;49.82;101150.48;1859871;76;23388;-74
2021/05/11 04:39:33;;;;;;;6.17;3.70;;;;;;;11.23;49.88;101145.05;1860513;76;22656;-74
2021/05/11 04:42:14;;;;;;;8.20;4.13;;;;;;;11.34;50.23;101147.32;1817964;77;22725;-75
2021/05/11 04:44:53;;;;;;;7.30;4.07;;;;;;;11.44;50.48;101145.58;1857216;76;22955;-74
2021/05/11 04:47:51;;;;;;;7.13;4.50;;;;;;;11.54;50.23;101142.77;1835837;77;22722;-75
2021/05/11 04:50:44;;;;;;;7.23;4.10;;;;;;;11.66;49.79;101144.26;1761732;79;23460;-74
2021/05/11 04:53:25;;;;;;;8.37;3.93;;;;;;;11.75;49.37;101139.28;1822705;77;22700;-75
2021/05/11 04:56:06;;;;;;;7.80;3.77;;;;;;;11.85;49.36;101139.96;1872859;76;22717;-75
2021/05/11 04:58:41;;;;;;;6.60;3.70;;;;;;;11.97;48.72;101138.73;1842870;75;22736;-75
2021/05/11 05:01:22;;;;;;;5.77;4.07;;;;;;;12.11;47.81;101135.66;1826566;76;22385;-75
2021/05/11 05:04:04;;;;;;;5.77;3.40;;;;;;;12.22;47.55;101125.34;1834308;76;22655;-75
2021/05/11 05:06:40;;;;;;;6.33;3.47;;;;;;;12.35;46.63;101126.80;1844886;76;22710;-74
2021/05/11 05:09:21;;;;;;;7.53;3.80;;;;;;;12.46;46.25;101125.80;1840590;75;22761;-75
2021/05/11 05:12:00;;;;;;;6.50;3.63;;;;;;;12.57;46.48;101123.50;1810524;77;22777;-75
2021/05/11 05:14:41;;;;;;;5.37;3.13;;;;;;;12.70;46.16;101112.88;1835662;76;23271;-74
2021/05/11 05:17:16;;;;;;;4.37;3.10;;;;;;;12.84;45.62;101123.96;1836525;76;22737;-74
2021/05/11 05:19:57;;;;;;;6.20;3.30;;;;;;;13.00;45.28;101117.63;1823929;76;22707;-75
2021/05/11 05:22:33;;;;;;;5.60;3.20;;;;;;;13.15;44.72;101112.88;1838924;77;23216;-75
2021/05/11 05:25:18;;;;;;;7.60;3.53;;;;;;;13.33;44.80;101118.37;1836614;77;22696;-75
2021/05/11 05:28:07;;;;;;;6.10;3.23;;;;;;;13.41;44.63;101117.06;1808054;77;21223;-75
2021/05/11 05:30:39;;;;;;;6.27;2.87;;;;;;;13.61;43.98;101123.84;1831962;76;22787;-74
2021/05/11 05:33:16;;;;;;;5.13;2.90;;;;;;;13.74;43.04;101115.30;1836170;76;23992;-74
2021/05/11 05:35:57;;;;;;;7.10;2.93;;;;;;;13.86;42.74;101111.04;1814987;79;22717;-75
2021/05/11 05:38:40;;;;;;;5.73;2.57;;;;;;;13.99;42.31;101098.98;1815359;77;22718;-74
2021/05/11 05:41:23;;;;;;;4.93;2.97;;;;;;;14.12;41.23;101098.47;1830231;77;22712;-75
2021/05/11 05:44:08;;;;;;;4.37;2.80;;;;;;;14.23;40.46;101090.67;1879107;76;23337;-75
2021/05/11 05:46:54;;;;;;;5.77;2.93;;;;;;;14.30;40.36;101097.92;1874801;75;21168;-75
2021/05/11 05:49:43;;;;;;;4.60;2.80;;;;;;;14.53;38.87;101101.17;1855862;77;22766;-74
2021/05/11 05:52:22;;;;;;;6.07;2.80;;;;;;;14.65;38.07;101094.99;1838274;76;22131;-74
2021/05/11 05:54:54;;;;;;;5.37;3.00;;;;;;;14.76;37.83;101086.36;1841349;77;22698;-75
2021/05/11 05:57:35;;;;;;;6.47;3.07;;;;;;;14.89;38.15;101089.03;1815810;76;22651;-74
2021/05/11 06:00:18;;;;;;;6.07;2.50;;;;;;;15.02;37.68;101087.11;1823330;76;23352;-74
2021/05/11 06:03:07;;;;;;;5.07;2.43;;;;;;;15.18;37.12;101087.33;1837468;77;23548;-74
2021/05/11 06:05:44;;;;;;;5.17;2.50;;;;;;;15.34;35.84;101088.63;1848297;77;23345;-74
2021/05/11 06:08:28;;;;;;;4.90;3.03;;;;;;;15.45;35.73;101096.37;1747249;80;22847;-75
2021/05/11 06:11:30;;;;;;;5.30;2.20;;;;;;;15.68;35.12;101097.63;1820233;76;22843;-74
2021/05/11 06:19:46;;;;;;;4.43;2.20;;;;;;;16.06;34.04;101091.22;1821194;76;22727;-75
2021/05/11 06:22:30;;;;;;;6.33;3.00;;;;;;;16.20;33.83;101091.37;1782065;77;28033;-73
2021/05/11 06:25:12;;;;;;;3.77;1.83;;;;;;;16.39;33.17;101088.26;1758441;79;23503;-74
2021/05/11 06:27:58;;;;;;;4.10;1.83;;;;;;;16.52;31.52;101107.55;1848196;77;22677;-75
2021/05/11 06:30:39;;;;;;;7.20;2.00;;;;;;;16.64;28.17;101095.30;1814656;77;22761;-73
2021/05/11 06:33:20;;;;;;;4.43;1.90;;;;;;;16.73;27.91;101087.41;1769945;79;22865;-74
2021/05/11 06:35:56;;;;;;;4.23;2.00;;;;;;;16.81;27.02;101076.03;1826571;77;22780;-75
2021/05/11 06:38:31;;;;;;;4.53;1.60;;;;;;;16.91;26.66;101062.95;1842780;77;22771;-75
2021/05/11 06:41:27;;;;;;;2.47;1.50;;;;;;;17.01;25.74;101072.31;1782068;78;22784;-75
2021/05/11 06:44:15;;;;;;;3.67;1.80;;;;;;;17.05;25.90;101070.64;1803109;78;22741;-74
2021/05/11 06:49:40;;;;;;;4.13;1.90;;;;;;;17.13;25.30;101065.14;1834222;77;23328;-75
2021/05/11 06:55:14;;;;;;;4.93;2.03;;;;;;;17.19;24.56;101070.73;1813706;77;22746;-74
2021/05/11 06:57:48;;;;;;;4.43;1.93;;;;;;;17.22;24.67;101055.31;1821367;76;22670;-74
2021/05/11 07:00:23;;;;;;;4.03;1.73;;;;;;;17.29;24.49;101060.36;1839506;77;22929;-74
2021/05/11 07:03:05;;;;;;;3.70;1.80;;;;;;;17.32;24.80;101057.88;1832962;76;22652;-74
2021/05/11 07:05:43;;;;;;;3.40;1.90;;;;;;;17.39;24.62;101060.23;1842593;77;23134;-74
2021/05/11 07:14:04;;;;;;;4.17;1.70;;;;;;;17.67;25.72;101054.98;1753032;79;22762;-74
2021/05/11 07:16:39;;;;;;;2.80;1.60;;;;;;;17.74;25.27;101053.53;1819578;77;22652;-74
2021/05/11 07:19:34;;;;;;;4.10;1.67;;;;;;;17.85;25.21;101053.41;1833717;77;23158;-75
2021/05/11 07:22:15;;;;;;;4.00;1.70;;;;;;;17.93;22.88;101049.50;1806459;78;22795;-73
2021/05/11 07:24:58;;;;;;;3.10;1.83;;;;;;;17.97;22.87;101034.30;1865488;74;22599;-74
2021/05/11 07:30:33;;;;;;;2.93;1.70;;;;;;;18.23;22.99;101021.16;1778079;79;22633;-75
2021/05/11 07:33:08;;;;;;;3.35;1.85;;;;;;;18.29;23.28;101021.86;1815682;75;38765;-75
2021/05/11 07:35:44;;;;;;;4.53;1.87;;;;;;;18.39;23.61;101016.82;1821768;77;22820;-75
2021/05/11 07:38:25;;;;;;;4.70;1.70;;;;;;;18.45;24.28;101004.26;1851063;76;22614;-76
2021/05/11 07:41:09;;;;;;;4.13;1.87;;;;;;;18.46;24.71;100986.16;1849227;76;23392;-74
2021/05/11 08:15:24;;;;;;;3.83;2.00;;;;;;;19.49;26.19;100996.48;1839652;76;22656;-73
2021/05/11 08:29:57;;;;;;;5.63;2.40;;;;;;;19.79;27.29;100978.72;1822917;77;22621;-74
2021/05/11 08:32:38;;;;;;;3.43;1.80;;;;;;;19.83;27.67;100983.77;1833412;77;22436;-73
2021/05/11 08:35:13;;;;;;;3.87;1.90;;;;;;;19.94;28.19;100967.25;1832316;77;22707;-74
2021/05/11 08:37:54;;;;;;;6.00;2.27;;;;;;;20.03;27.52;100974.88;1804010;77;23322;-73
2021/05/11 08:40:32;;;;;;;6.10;2.27;;;;;;;20.06;27.38;100976.41;1838165;76;23336;-73
2021/05/11 08:43:41;;;;;;;6.63;2.23;;;;;;;20.06;27.15;100975.06;1807039;79;22704;-74
2021/05/11 08:46:15;;;;;;;5.17;2.23;;;;;;;20.06;27.28;100964.22;1837528;75;22854;-73
2021/05/11 08:49:01;;;;;;;3.63;1.97;;;;;;;20.07;27.12;100952.80;1807004;79;22426;-74
2021/05/11 09:06:38;;;;;;;3.40;2.07;;;;;;;20.41;26.77;100938.62;1860335;76;23388;-75
2021/05/11 09:27:22;;;;;;;3.40;1.80;;;;;;;20.87;28.23;100906.67;1838590;77;22783;-73
2021/05/11 09:33:06;;;;;;;3.23;1.70;;;;;;;21.04;28.58;100897.17;1832549;76;23053;-73
2021/05/11 09:45:06;;;;;;;5.07;1.90;;;;;;;21.32;28.73;100890.84;1864630;76;22829;-74
2021/05/11 09:56:34;;;;;;;4.37;1.70;;;;;;;21.46;28.59;100877.13;1855484;76;22754;-74
2021/05/11 10:44:04;;;;;;;4.93;2.10;;;;;;;22.26;28.51;100834.39;1840498;77;22713;-74
2021/05/11 10:49:38;;;;;;;6.77;2.43;;;;;;;22.26;27.53;100825.66;1835767;77;22703;-74
2021/05/11 10:57:58;;;;;;;3.57;2.10;;;;;;;22.17;28.07;100825.70;1826414;77;22786;-73
2021/05/11 11:00:58;;;;;;;6.23;1.90;;;;;;;22.15;27.38;100823.89;1834937;77;22806;-74
2021/05/11 11:03:41;;;;;;;5.50;1.90;;;;;;;22.11;27.97;100824.30;1814633;79;22761;-74
2021/05/11 11:06:23;;;;;;;3.83;1.70;;;;;;;22.13;27.83;100823.37;1823972;77;22748;-73
2021/05/11 11:09:11;;;;;;;5.43;2.00;;;;;;;22.08;28.05;100814.06;1786343;77;21255;-74
2021/05/11 11:11:53;;;;;;;4.67;2.07;;;;;;;22.18;28.79;100819.72;1829308;77;22808;-74
2021/05/11 11:14:38;;;;;;;3.50;1.97;;;;;;;22.24;28.25;100800.16;1833304;77;22763;-74
2021/05/11 11:17:15;;;;;;;5.87;2.10;;;;;;;22.32;28.18;100809.38;1828354;77;22672;-74
2021/05/11 11:19:55;;;;;;;5.87;1.83;;;;;;;22.31;27.51;100817.33;1837945;76;23071;-75
2021/05/11 11:25:42;;;;;;;5.03;1.70;;;;;;;22.27;28.19;100798.68;1835811;77;24164;-74
2021/05/11 11:28:28;;;;;;;4.67;1.77;;;;;;;22.32;28.27;100786.25;1828464;76;22427;-73
2021/05/11 11:31:23;;;;;;;2.93;1.80;;;;;;;22.37;28.10;100793.41;1825609;77;22693;-74
2021/05/11 11:34:37;;;;;;;4.30;1.70;;;;;;;22.43;28.00;100792.89;1831628;77;22929;-73
2021/05/11 11:37:23;;;;;;;2.83;1.67;;;;;;;22.49;27.74;100777.16;1823940;77;22884;-74
2021/05/11 11:40:11;;;;;;;5.27;2.27;;;;;;;22.49;28.62;100771.72;1785113;77;21583;-73
2021/05/11 11:42:49;;;;;;;3.97;1.80;;;;;;;22.68;28.65;100763.88;1851953;77;23347;-74
2021/05/11 11:45:26;;;;;;;4.57;2.07;;;;;;;22.82;27.88;100768.25;1819255;77;28376;-73
2021/05/11 11:48:08;;;;;;;3.77;1.80;;;;;;;22.90;27.67;100762.73;1837010;77;22681;-73
2021/05/11 11:50:57;;;;;;;3.23;1.93;;;;;;;22.87;27.88;100762.61;1802756;79;21731;-73
2021/05/11 11:53:45;;;;;;;4.43;1.90;;;;;;;22.96;27.85;100755.72;1837359;77;23360;-75
2021/05/11 11:57:45;;;;;;;6.65;1.98;;;;;;;23.03;28.39;100765.50;1793584;78;27988;-74
2021/05/11 11:59:24;;;;;;;4.77;1.80;;;;;;;23.21;28.51;100756.59;1843377;75;24094;-74
2021/05/11 12:02:05;;;;;;;4.43;1.77;;;;;;;23.30;27.42;100754.02;1834944;77;23647;-74
2021/05/11 12:04:47;;;;;;;3.50;1.93;;;;;;;23.30;27.60;100753.22;1823505;76;24216;-75
2021/05/11 12:07:35;;;;;;;5.63;1.77;;;;;;;23.28;27.30;100750.81;1828979;77;22389;-74
2021/05/11 12:10:26;;;;;;;4.03;1.50;;;;;;;23.23;27.98;100750.23;1819258;77;21167;-74
2021/05/11 12:13:08;;;;;;;4.63;1.60;;;;;;;23.33;27.59;100745.70;1760517;78;24244;-74
2021/05/11 12:15:44;;;;;;;4.67;1.82;;;;;;;23.35;27.84;100762.52;1791788;77;28620;-74
2021/05/11 12:18:26;;;;;;;5.57;1.60;;;;;;;23.41;27.53;100740.73;1795309;79;25072;-74
2021/05/11 12:21:05;;;;;;;3.98;1.87;;;;;;;23.46;27.44;100740.52;1840078;76;27900;-74
2021/05/11 12:23:47;;;;;;;4.50;1.50;;;;;;;23.57;28.24;100733.47;1819172;77;27405;-74
2021/05/11 12:26:30;;;;;;;3.20;1.63;;;;;;;23.66;27.75;100734.73;1821696;77;26038;-73
2021/05/11 12:29:17;;;;;;;2.80;1.70;;;;;;;23.68;27.33;100733.84;1860311;76;25005;-73
2021/05/11 12:31:58;;;;;;;3.80;1.70;;;;;;;23.64;27.40;100737.00;1815754;76;24564;-74
2021/05/11 12:34:39;;;;;;;3.83;1.73;;;;;;;23.61;27.68;100727.56;1779469;79;25101;-73
2021/05/11 12:37:22;;;;;;;2.93;1.60;;;;;;;23.62;27.75;100723.69;1818299;77;24956;-73
2021/05/11 12:43:02;;;;;;;3.40;1.60;;;;;;;23.71;27.56;100724.98;1838196;77;26030;-73
2021/05/11 12:45:53;;;;;;;3.87;1.80;;;;;;;23.68;27.57;100714.75;1849761;77;26442;-74
2021/05/11 12:49:02;;;;;;;3.67;1.60;;;;;;;23.60;27.63;100716.44;1833370;77;24452;-73
2021/05/11 12:51:41;;;;;;;4.17;1.70;;;;;;;23.59;28.10;100705.31;1788571;79;23065;-73
2021/05/11 12:54:41;;;;;;;4.43;1.60;;;;;;;23.63;28.01;100698.60;1826935;77;25002;-74
2021/05/11 13:00:45;;;;;;;3.10;1.67;;;;;;;23.70;28.18;100692.61;1756423;80;22984;-74
2021/05/11 13:04:05;;;;;;;3.73;1.60;;;;;;;23.82;28.50;100681.66;1881482;76;24946;-72
2021/05/11 13:20:56;;;;;;;5.12;1.70;;;;;;;24.06;28.20;100676.75;1898161;74;27871;-74
2021/05/11 13:26:48;;;;;;;3.43;1.30;;;;;;;24.29;27.30;100681.11;1792417;77;25127;-72
2021/05/11 13:32:23;;;;;;;2.80;1.27;;;;;;;24.38;27.37;100676.27;1845417;75;25088;-73
2021/05/11 13:35:06;;;;;;;2.13;1.20;;;;;;;24.36;27.61;100677.22;1803213;77;21232;-74
2021/05/11 13:37:47;;;;;;;4.23;1.50;;;;;;;24.45;27.40;100673.80;1877651;75;25486;-71
2021/05/11 13:40:43;;;;;;;2.80;1.40;;;;;;;24.47;27.55;100670.13;1826375;77;26996;-73
2021/05/11 13:43:19;;;;;;;2.73;1.30;;;;;;;24.52;27.77;100663.64;1835225;75;26979;-74
2021/05/11 13:46:00;;;;;;;3.30;1.40;;;;;;;24.55;27.31;100667.05;1821112;77;25063;-73
2021/05/11 13:48:44;;;;;;;4.77;1.57;;;;;;;24.52;27.04;100659.55;1829253;77;28037;-71
2021/05/11 13:51:19;;;;;;;5.27;1.50;;;;;;;24.50;27.56;100666.70;1834117;77;25021;-72
2021/05/11 13:54:03;;;;;;;2.63;1.20;;;;;;;24.51;27.60;100655.20;1818455;76;26409;-72
2021/05/11 13:56:53;;;;;;;4.00;1.47;;;;;;;24.54;27.82;100658.61;1836293;77;27083;-72
2021/05/11 14:05:14;;;;;;;4.43;1.30;;;;;;;24.68;27.43;100660.37;1799909;79;25052;-73
2021/05/11 14:07:49;;;;;;;4.20;1.80;;;;;;;24.80;27.42;100658.92;1776950;79;26311;-74
2021/05/11 14:10:30;;;;;;;3.40;1.30;;;;;;;24.98;27.15;100648.46;1756080;80;25888;-73
2021/05/11 14:13:09;;;;;;;5.57;1.57;;;;;;;25.22;27.38;100648.09;1802328;78;26500;-73
2021/05/11 14:15:51;;;;;;;4.40;1.50;;;;;;;25.49;26.85;100652.62;1825355;77;25560;-73
2021/05/11 14:18:26;;;;;;;3.73;1.60;;;;;;;25.85;26.52;100643.87;1825688;77;26569;-74
2021/05/11 14:21:01;;;;;;;5.60;1.43;;;;;;;26.30;26.20;100641.09;1792069;79;26865;-73
2021/05/11 14:23:36;;;;;;;3.17;1.30;;;;;;;26.74;25.37;100643.48;1835207;77;26893;-72
2021/05/11 14:26:11;;;;;;;6.00;1.63;;;;;;;27.16;25.07;100638.55;1834263;77;26841;-74
2021/05/11 14:28:54;;;;;;;6.00;1.80;;;;;;;27.53;24.25;100637.91;1828044;77;26774;-72
2021/05/11 14:31:35;;;;;;;4.70;1.60;;;;;;;27.79;23.74;100631.05;1822836;77;27172;-72
2021/05/11 14:36:53;;;;;;;5.13;1.70;;;;;;;28.26;23.83;100631.61;1824616;77;26936;-73
2021/05/11 14:39:28;;;;;;;6.80;1.80;;;;;;;28.45;23.57;100630.67;1779082;79;26550;-74
2021/05/11 14:42:04;;;;;;;4.60;1.50;;;;;;;28.65;23.64;100632.05;1833850;77;27329;-72
2021/05/11 14:44:40;;;;;;;3.10;1.30;;;;;;;28.85;23.04;100627.13;1839042;76;22955;-74
2021/05/11 14:47:16;;;;;;;4.40;1.50;;;;;;;28.97;23.04;100616.43;1835526;76;23456;-74
2021/05/11 14:50:04;;;;;;;5.30;1.70;;;;;;;29.10;23.09;100619.11;1832669;76;21207;-73
2021/05/11 14:52:40;;;;;;;3.27;1.30;;;;;;;29.46;22.40;100616.60;1832690;77;22675;-73
2021/05/11 14:55:25;;;;;;;5.33;1.63;;;;;;;29.59;22.03;100608.22;1792072;77;22920;-73
2021/05/11 14:58:06;;;;;;;3.90;1.67;;;;;;;29.68;21.75;100604.57;1821485;77;23335;-72
2021/05/11 15:01:01;;;;;;;5.00;1.53;;;;;;;29.63;21.92;100603.55;1849373;77;22721;-73
2021/05/11 15:03:36;;;;;;;5.20;1.50;;;;;;;29.47;21.99;100604.41;1834599;77;23244;-73
2021/05/11 15:06:13;;;;;;;4.93;1.67;;;;;;;29.18;22.33;100600.69;1829385;77;23303;-74
2021/05/11 15:08:59;;;;;;;5.27;1.73;;;;;;;29.11;22.80;100600.65;1759267;79;23059;-73
2021/05/11 15:11:40;;;;;;;5.33;1.70;;;;;;;29.24;22.66;100598.38;1800379;78;22812;-75
2021/05/11 15:14:21;;;;;;;5.87;1.83;;;;;;;29.52;22.32;100593.05;1832821;76;22696;-74
2021/05/11 15:17:58;;;;;;;5.67;1.97;;;;;;;29.59;22.10;100593.08;1833080;75;22783;-72
2021/05/11 15:19:44;;;;;;;3.37;1.63;;;;;;;29.50;22.18;100581.62;1830991;76;22685;-72
2021/05/11 15:22:27;;;;;;;5.20;1.80;;;;;;;29.47;22.51;100594.00;1806569;77;23724;-73
2021/05/11 15:25:05;;;;;;;4.23;1.90;;;;;;;29.62;22.30;100592.94;1805988;77;23427;-73
2021/05/11 15:27:41;;;;;;;4.37;1.80;;;;;;;29.41;22.24;100583.94;1838606;77;22100;-73
2021/05/11 15:30:24;;;;;;;5.03;1.63;;;;;;;29.11;22.87;100586.89;1770701;80;22829;-73
2021/05/11 15:33:00;;;;;;;7.63;1.80;;;;;;;28.98;23.00;100587.16;1825741;76;22697;-73
2021/05/11 15:35:44;;;;;;;5.60;1.77;;;;;;;28.70;23.18;100579.49;1862879;74;22710;-72
2021/05/11 15:38:29;;;;;;;5.70;2.00;;;;;;;28.39;23.42;100582.70;1838566;76;22799;-74
2021/05/11 15:41:15;;;;;;;5.93;2.00;;;;;;;28.27;23.72;100581.02;1799504;79;23764;-74
2021/05/11 15:43:51;;;;;;;3.97;1.70;;;;;;;28.04;23.96;100588.82;1785420;77;22072;-73
2021/05/11 15:46:32;;;;;;;5.33;1.90;;;;;;;27.74;24.55;100581.97;1821665;76;26988;-74
2021/05/11 15:49:17;;;;;;;6.93;2.10;;;;;;;27.56;24.91;100585.84;1798580;79;21671;-74
2021/05/11 15:51:52;;;;;;;6.27;1.90;;;;;;;27.59;25.07;100582.35;1787886;79;26520;-73
2021/05/11 15:54:29;;;;;;;4.87;2.03;;;;;;;27.71;25.01;100584.08;1830013;77;26818;-72
2021/05/11 15:57:10;;;;;;;5.77;1.90;;;;;;;27.95;24.67;100580.67;1820093;76;26486;-73
2021/05/11 15:59:46;;;;;;;6.20;1.90;;;;;;;28.28;24.31;100578.48;1783714;79;26862;-73
2021/05/11 16:02:21;;;;;;;4.73;1.53;;;;;;;28.42;24.13;100572.36;1835276;77;27833;-73
2021/05/11 16:05:07;;;;;;;5.83;1.73;;;;;;;28.49;23.98;100566.34;1851065;75;21679;-73
2021/05/11 16:07:42;;;;;;;4.93;1.63;;;;;;;28.71;23.64;100571.45;1834477;75;27374;-73
2021/05/11 16:10:19;;;;;;;5.07;1.70;;;;;;;28.75;23.78;100567.34;1777193;77;23252;-73
2021/05/11 16:12:55;;;;;;;5.10;1.90;;;;;;;28.92;23.95;100564.53;1831242;77;22740;-73
2021/05/11 16:15:37;;;;;;;5.87;1.90;;;;;;;29.12;23.73;100565.91;1833018;77;22915;-75
2021/05/11 16:18:19;;;;;;;5.73;1.60;;;;;;;29.32;23.20;100558.72;1841518;77;22550;-73
2021/05/11 16:21:00;;;;;;;5.53;1.80;;;;;;;29.24;23.37;100557.90;1772184;80;22720;-73
2021/05/11 16:23:41;;;;;;;7.50;2.00;;;;;;;29.17;23.55;100555.90;1834463;77;23219;-74
2021/05/11 16:26:17;;;;;;;4.83;1.67;;;;;;;29.16;23.43;100558.45;1817608;77;23114;-73
2021/05/11 16:28:58;;;;;;;4.90;1.70;;;;;;;29.17;23.56;100560.02;1821366;77;23341;-73
2021/05/11 16:31:34;;;;;;;2.67;1.40;;;;;;;29.19;23.23;100558.28;1818036;76;23339;-73
2021/05/11 16:34:11;;;;;;;6.30;1.90;;;;;;;29.06;23.58;100560.55;1828792;76;23375;-73
2021/05/11 16:36:48;;;;;;;5.03;1.80;;;;;;;28.89;23.72;100572.16;1839766;77;24050;-71
2021/05/11 16:39:24;;;;;;;5.50;1.80;;;;;;;28.68;23.86;100567.30;1835651;77;23335;-72